Time;durP1;ratioP1;P1;durP2;ratioP2;P2;SDS_P1;SDS_P2;PMS_P1;PMS_P2;Temp;Humidity;BMP_temperature;BMP_pressure;BME280_temperature;BME280_humidity;BME280_pressure;Samples;Min_cycle;Max_cycle;Signal;HPM_P1;HPM_P2
2021/09/08 00:00:09;;;;;;;5.07;1.20;;;;;15.50;100138.00;;;;5047920;28;20045;-76
2021/09/08 00:02:39;;;;;;;4.05;1.33;;;;;15.50;100142.00;;;;5046876;28;20435;-76
2021/09/08 00:05:10;;;;;;;3.75;1.20;;;;;15.60;100123.00;;;;5047248;28;20051;-78
2021/09/08 00:07:39;;;;;;;2.50;1.10;;;;;15.50;100116.00;;;;5045942;28;20088;-79
2021/09/08 00:10:09;;;;;;;3.28;1.35;;;;;15.60;100117.00;;;;5045599;28;20099;-76
2021/09/08 00:12:39;;;;;;;2.63;1.33;;;;;15.60;100107.00;;;;5046577;28;20049;-75
2021/09/08 00:15:10;;;;;;;3.33;1.63;;;;;15.60;100107.00;;;;5046222;28;20455;-78
2021/09/08 00:17:39;;;;;;;6.03;1.15;;;;;15.50;100099.00;;;;5045501;28;20049;-76
2021/09/08 00:20:10;;;;;;;2.60;1.30;;;;;15.50;100109.00;;;;5045180;28;20045;-76
2021/09/08 00:22:39;;;;;;;2.13;1.30;;;;;15.50;100103.00;;;;5046024;28;20049;-76
2021/09/08 00:25:09;;;;;;;7.40;1.60;;;;;15.50;100091.00;;;;5048318;28;20045;-76
2021/09/08 00:27:38;;;;;;;10.00;1.52;;;;;15.50;100076.00;;;;5049566;28;20132;-77
2021/09/08 00:30:08;;;;;;;4.40;1.38;;;;;15.50;100074.00;;;;5048828;28;20527;-77
2021/09/08 00:32:37;;;;;;;4.18;1.30;;;;;15.50;100080.00;;;;5048911;28;20556;-76
2021/09/08 00:35:07;;;;;;;3.13;1.30;;;;;15.50;100082.00;;;;5048874;28;20052;-78
2021/09/08 00:37:39;;;;;;;6.28;1.25;;;;;15.50;100085.00;;;;5048718;28;20076;-77
2021/09/08 00:40:09;;;;;;;11.70;1.70;;;;;15.50;100068.00;;;;5049466;28;20055;-75
2021/09/08 00:42:38;;;;;;;8.30;1.38;;;;;15.50;100056.00;;;;5049522;28;20107;-75
2021/09/08 00:45:08;;;;;;;2.65;1.10;;;;;15.50;100066.00;;;;5047741;28;20049;-76
2021/09/08 00:47:38;;;;;;;9.68;1.77;;;;;15.60;100044.00;;;;5048644;28;20067;-78
2021/09/08 00:50:08;;;;;;;5.57;1.48;;;;;15.50;100047.00;;;;5047631;28;20053;-76
2021/09/08 00:52:40;;;;;;;9.35;1.30;;;;;15.50;100024.00;;;;5047454;28;20049;-76
2021/09/08 00:55:10;;;;;;;6.85;1.02;;;;;15.50;100041.00;;;;5048909;28;20098;-76
2021/09/08 00:57:40;;;;;;;4.68;1.25;;;;;15.50;100052.00;;;;5049573;28;20060;-77
2021/09/08 01:00:10;;;;;;;7.95;1.10;;;;;15.50;100017.00;;;;5048145;28;20049;-77
2021/09/08 01:02:40;;;;;;;5.88;1.10;;;;;15.50;100023.00;;;;5048620;28;20061;-78
2021/09/08 01:05:10;;;;;;;1.33;0.98;;;;;15.60;100039.00;;;;5048283;28;20103;-78
2021/09/08 01:07:39;;;;;;;2.58;1.00;;;;;15.60;100013.00;;;;5048101;28;20084;-77
2021/09/08 01:10:10;;;;;;;5.30;1.17;;;;;15.60;100020.00;;;;5048717;28;20055;-78
2021/09/08 01:12:38;;;;;;;8.85;1.13;;;;;15.60;100022.00;;;;5048188;28;20084;-78
2021/09/08 01:15:08;;;;;;;5.90;1.00;;;;;15.60;100019.00;;;;5048386;28;20136;-76
2021/09/08 01:17:37;;;;;;;5.40;1.10;;;;;15.50;100024.00;;;;5048105;28;20059;-77
2021/09/08 01:20:07;;;;;;;4.07;1.33;;;;;15.60;100016.00;;;;5048334;28;20053;-77
2021/09/08 01:22:47;;;;;;;4.85;1.35;;;;;15.60;99986.00;;;;5048259;28;20412;-77
2021/09/08 01:25:22;;;;;;;6.72;1.63;;;;;15.70;99988.00;;;;5047107;28;20059;-76
2021/09/08 01:27:53;;;;;;;7.50;1.52;;;;;15.70;99991.00;;;;5045663;28;20045;-75
2021/09/08 01:30:24;;;;;;;;;;;;;15.80;99985.00;;;;5047325;28;20527;-78
2021/09/08 01:32:54;;;;;;;7.65;1.52;;;;;15.80;99948.00;;;;5048624;28;20884;-78
2021/09/08 01:35:23;;;;;;;6.45;1.60;;;;;15.80;99973.00;;;;5047395;28;20037;-76
2021/09/08 01:37:52;;;;;;;4.63;1.55;;;;;15.80;99964.00;;;;5047927;28;20064;-75
2021/09/08 01:40:21;;;;;;;3.38;1.50;;;;;15.80;99973.00;;;;5048057;28;20148;-77
2021/09/08 01:42:51;;;;;;;4.82;1.88;;;;;15.80;99969.00;;;;5047690;28;20053;-77
2021/09/08 01:45:19;;;;;;;5.47;2.25;;;;;15.80;99956.00;;;;5047829;28;20049;-75
2021/09/08 01:47:48;;;;;;;4.15;1.85;;;;;15.80;99983.00;;;;5048008;28;20045;-76
2021/09/08 01:50:17;;;;;;;3.08;1.60;;;;;15.90;99971.00;;;;5047686;28;20095;-75
2021/09/08 01:52:46;;;;;;;4.78;1.80;;;;;15.90;99960.00;;;;5047887;28;20060;-75
2021/09/08 01:55:16;;;;;;;7.38;2.05;;;;;15.90;99938.00;;;;5047737;28;20049;-77
2021/09/08 01:57:45;;;;;;;5.70;2.03;;;;;15.90;99946.00;;;;5047651;28;20056;-75
2021/09/08 02:00:15;;;;;;;3.33;1.77;;;;;15.90;99947.00;;;;5047871;28;20053;-77
2021/09/08 02:02:44;;;;;;;3.05;1.90;;;;;15.90;99940.00;;;;5046213;28;20057;-75
2021/09/08 02:05:15;;;;;;;2.25;1.08;;;;;15.90;99936.00;;;;5047836;28;20055;-78
2021/09/08 02:07:44;;;;;;;7.78;2.55;;;;;15.90;99935.00;;;;5047886;28;20052;-75
2021/09/08 02:10:14;;;;;;;275.08;110.70;;;;;16.00;99939.00;;;;5047801;28;20053;-75
2021/09/08 02:12:43;;;;;;;3.72;2.20;;;;;16.00;99923.00;;;;5048181;28;20055;-75
2021/09/08 02:15:12;;;;;;;3.50;2.50;;;;;16.10;99925.00;;;;5047290;28;20053;-75
2021/09/08 02:17:42;;;;;;;2.35;2.15;;;;;16.10;99902.00;;;;5047008;28;20075;-76
2021/09/08 02:20:11;;;;;;;8.77;7.88;;;;;16.10;99878.00;;;;5047408;28;20052;-75
2021/09/08 02:22:40;;;;;;;7.88;2.33;;;;;16.20;99852.00;;;;5047138;28;20095;-78
2021/09/08 02:25:10;;;;;;;3.17;2.20;;;;;16.20;99869.00;;;;5046748;28;20041;-76
2021/09/08 02:27:39;;;;;;;8.02;2.55;;;;;16.20;99829.00;;;;5047496;28;20063;-75
2021/09/08 02:30:08;;;;;;;3.10;2.30;;;;;16.30;99826.00;;;;5046906;28;20051;-77
2021/09/08 02:32:37;;;;;;;2.45;2.25;;;;;16.50;99840.00;;;;5046686;28;20057;-78
2021/09/08 02:35:07;;;;;;;2.67;2.38;;;;;16.50;99860.00;;;;5047323;28;20087;-74
2021/09/08 02:37:37;;;;;;;5.90;2.20;;;;;16.70;99828.00;;;;5047410;28;20053;-76
2021/09/08 02:40:07;;;;;;;4.20;2.10;;;;;16.70;99821.00;;;;5046758;28;20137;-75
2021/09/08 02:42:36;;;;;;;4.35;2.10;;;;;16.70;99788.00;;;;5047211;28;20079;-76
2021/09/08 02:45:05;;;;;;;3.90;2.00;;;;;16.90;99809.00;;;;5047222;28;20063;-77
2021/09/08 02:47:35;;;;;;;3.95;2.45;;;;;17.10;99848.00;;;;5046598;28;20052;-76
2021/09/08 02:50:05;;;;;;;4.72;2.38;;;;;17.30;99842.00;;;;5046955;28;20110;-78
2021/09/08 02:52:34;;;;;;;6.28;2.33;;;;;17.50;99824.00;;;;5046564;28;20056;-76
2021/09/08 02:55:03;;;;;;;2.53;2.17;;;;;17.30;99801.00;;;;5046661;28;20049;-78
2021/09/08 02:57:32;;;;;;;4.72;2.70;;;;;17.60;99770.00;;;;5046733;28;20059;-76
2021/09/08 03:00:01;;;;;;;3.65;2.10;;;;;17.80;99711.00;;;;5046646;28;20045;-78
2021/09/08 03:02:30;;;;;;;2.65;1.50;;;;;17.90;99687.00;;;;5046850;28;20045;-78
2021/09/08 03:04:59;;;;;;;4.70;1.85;;;;;18.00;99707.00;;;;5047287;28;20141;-79
2021/09/08 03:07:28;;;;;;;2.10;1.90;;;;;18.00;99696.00;;;;5046404;28;20060;-77
2021/09/08 03:09:57;;;;;;;2.22;1.90;;;;;17.90;99671.00;;;;5046713;28;20045;-79
2021/09/08 03:12:26;;;;;;;7.85;1.85;;;;;17.90;99693.00;;;;5047076;28;20053;-77
2021/09/08 03:14:55;;;;;;;2.60;2.05;;;;;17.80;99662.00;;;;5046806;28;20089;-80
2021/09/08 03:17:24;;;;;;;5.28;1.95;;;;;17.90;99661.00;;;;5045254;28;20102;-77
2021/09/08 03:19:54;;;;;;;3.72;2.00;;;;;17.90;99656.00;;;;5046264;28;20144;-76
2021/09/08 03:22:23;;;;;;;5.00;2.00;;;;;18.00;99671.00;;;;5047001;28;20077;-78
2021/09/08 03:24:52;;;;;;;5.72;2.00;;;;;18.30;99653.00;;;;5046476;28;20131;-79
2021/09/08 03:27:21;;;;;;;4.45;1.83;;;;;18.20;99625.00;;;;5046575;28;20496;-78
2021/09/08 03:29:50;;;;;;;3.22;2.03;;;;;18.20;99620.00;;;;5046630;28;20057;-75
2021/09/08 03:32:19;;;;;;;26.67;24.48;;;;;18.50;99613.00;;;;5045475;28;20056;-79
2021/09/08 03:34:48;;;;;;;1.73;1.63;;;;;18.60;99631.00;;;;5046455;28;20528;-76
2021/09/08 03:37:17;;;;;;;87.22;15.63;;;;;18.50;99620.00;;;;5046178;28;20053;-78
2021/09/08 03:39:46;;;;;;;3.40;1.73;;;;;18.50;99630.00;;;;5046453;28;20144;-75
2021/09/08 03:42:15;;;;;;;2.25;1.73;;;;;18.50;99606.00;;;;5047222;28;20053;-78
2021/09/08 03:44:44;;;;;;;2.35;2.15;;;;;18.70;99580.00;;;;5046136;28;20397;-76
2021/09/08 03:47:12;;;;;;;2.92;2.33;;;;;19.00;99563.00;;;;5046177;28;20053;-76
2021/09/08 03:49:45;;;;;;;3.20;2.50;;;;;18.90;99598.00;;;;5046823;28;20048;-79
2021/09/08 03:52:15;;;;;;;2.75;2.00;;;;;19.00;99607.00;;;;5045993;28;20447;-77
2021/09/08 03:54:45;;;;;;;1.77;1.50;;;;;19.20;99594.00;;;;5046148;28;20057;-77
2021/09/08 03:57:13;;;;;;;4.30;2.15;;;;;19.00;99609.00;;;;5045943;28;20437;-78
2021/09/08 03:59:42;;;;;;;3.72;1.92;;;;;18.80;99639.00;;;;5046808;28;20053;-79
2021/09/08 04:02:12;;;;;;;3.15;2.13;;;;;18.70;99655.00;;;;5049704;28;20591;-76
2021/09/08 04:04:43;;;;;;;2.30;1.80;;;;;18.60;99674.00;;;;5049907;28;20080;-76
2021/09/08 04:07:12;;;;;;;272.05;23.30;;;;;18.80;99683.00;;;;5049679;28;20754;-77
2021/09/08 04:09:41;;;;;;;11.98;2.72;;;;;18.60;99687.00;;;;5049336;28;20087;-76
2021/09/08 04:12:10;;;;;;;1.85;1.63;;;;;18.50;99690.00;;;;5049141;28;20053;-76
2021/09/08 04:14:43;;;;;;;5.95;2.10;;;;;18.60;99649.00;;;;5049423;28;20053;-76
2021/09/08 04:17:11;;;;;;;150.90;9.68;;;;;18.80;99661.00;;;;5049579;28;20055;-78
2021/09/08 04:19:40;;;;;;;337.40;47.95;;;;;18.80;99690.00;;;;5049554;28;20071;-76
2021/09/08 04:22:09;;;;;;;2.70;1.95;;;;;18.50;99693.00;;;;5048123;28;20055;-77
2021/09/08 04:24:38;;;;;;;13.05;11.10;;;;;18.40;99714.00;;;;5048713;28;20049;-75
2021/09/08 04:27:07;;;;;;;3.55;1.95;;;;;18.30;99709.00;;;;5049456;28;20041;-76
2021/09/08 04:29:36;;;;;;;5.63;2.38;;;;;17.90;99697.00;;;;5049082;28;20136;-77
2021/09/08 04:32:05;;;;;;;7.80;2.53;;;;;17.70;99669.00;;;;5049369;28;20048;-77
2021/09/08 04:34:34;;;;;;;819.97;276.67;;;;;17.50;99671.00;;;;5049451;28;20059;-75
2021/09/08 04:37:03;;;;;;;6.88;2.33;;;;;17.30;99680.00;;;;5049197;28;20530;-77
2021/09/08 04:39:32;;;;;;;14.85;10.43;;;;;17.20;99646.00;;;;5049452;28;20103;-78
2021/09/08 04:42:01;;;;;;;6.07;3.10;;;;;17.30;99650.00;;;;5049103;28;20127;-78
2021/09/08 04:44:30;;;;;;;313.15;23.08;;;;;17.20;99628.00;;;;5049169;28;20049;-77
2021/09/08 04:46:59;;;;;;;23.35;7.72;;;;;17.20;99622.00;;;;5049089;28;20059;-75
2021/09/08 04:49:28;;;;;;;5.85;3.40;;;;;17.30;99647.00;;;;5049137;28;20136;-76
2021/09/08 04:51:57;;;;;;;6.10;3.15;;;;;17.30;99624.00;;;;5049108;28;20045;-76
2021/09/08 04:54:26;;;;;;;326.63;28.77;;;;;17.10;99597.00;;;;5048582;28;20492;-77
2021/09/08 04:56:55;;;;;;;72.85;50.25;;;;;17.00;99609.00;;;;5048946;28;20057;-76
2021/09/08 04:59:23;;;;;;;3.15;2.55;;;;;16.90;99582.00;;;;5048352;28;20131;-77
2021/09/08 05:01:53;;;;;;;56.05;7.45;;;;;16.90;99604.00;;;;5048705;28;20389;-75
2021/09/08 05:04:22;;;;;;;6.88;4.20;;;;;16.90;99638.00;;;;5049519;28;20053;-76
2021/09/08 05:06:52;;;;;;;56.38;11.70;;;;;17.00;99611.00;;;;5049040;28;20045;-74
2021/09/08 05:09:21;;;;;;;16.35;14.77;;;;;17.00;99629.00;;;;5049195;28;20096;-75
2021/09/08 05:11:49;;;;;;;55.38;18.67;;;;;17.00;99627.00;;;;5047548;28;20518;-77
2021/09/08 05:14:18;;;;;;;203.52;44.00;;;;;17.00;99594.00;;;;5048468;28;20053;-74
2021/09/08 05:16:47;;;;;;;43.05;29.50;;;;;16.90;99572.00;;;;5048559;28;20048;-75
2021/09/08 05:19:16;;;;;;;10.75;6.53;;;;;16.90;99568.00;;;;5048834;28;20051;-74
2021/09/08 05:21:45;;;;;;;178.60;64.32;;;;;16.90;99570.00;;;;5048809;28;20057;-76
2021/09/08 05:24:14;;;;;;;309.73;157.35;;;;;16.90;99560.00;;;;5048436;28;20541;-76
2021/09/08 05:26:43;;;;;;;7.68;6.72;;;;;16.90;99557.00;;;;5048791;28;20140;-76
2021/09/08 05:29:14;;;;;;;11.48;10.30;;;;;16.90;99543.00;;;;5047978;28;20090;-78
2021/09/08 05:31:43;;;;;;;28.20;25.23;;;;;16.90;99538.00;;;;5048420;28;20064;-76
2021/09/08 05:34:12;;;;;;;14.48;5.82;;;;;16.90;99542.00;;;;5047986;28;20053;-76
2021/09/08 05:36:41;;;;;;;12.85;7.50;;;;;16.80;99532.00;;;;5047247;28;20045;-75
2021/09/08 05:39:10;;;;;;;48.58;23.02;;;;;16.90;99532.00;;;;5048297;28;20049;-76
2021/09/08 05:41:39;;;;;;;672.58;57.58;;;;;16.90;99509.00;;;;5048288;28;20460;-75
2021/09/08 05:44:08;;;;;;;13.38;6.63;;;;;17.00;99527.00;;;;5048180;28;21000;-76
2021/09/08 05:46:37;;;;;;;110.47;18.30;;;;;17.10;99502.00;;;;5047796;28;20075;-74
2021/09/08 05:49:05;;;;;;;12.75;11.73;;;;;17.10;99510.00;;;;5047902;28;20451;-78
2021/09/08 05:51:34;;;;;;;48.72;39.08;;;;;16.90;99501.00;;;;5047996;28;20111;-77
2021/09/08 05:54:04;;;;;;;13.25;6.10;;;;;16.90;99493.00;;;;5047667;28;20048;-76
2021/09/08 05:56:34;;;;;;;10.60;6.20;;;;;16.80;99476.00;;;;5047737;28;20053;-75
2021/09/08 05:59:03;;;;;;;1397.93;579.25;;;;;16.90;99475.00;;;;5048052;28;20045;-77
2021/09/08 06:01:32;;;;;;;13.73;7.53;;;;;16.90;99469.00;;;;5047345;28;20139;-77
2021/09/08 06:04:01;;;;;;;144.48;129.20;;;;;16.90;99439.00;;;;5047333;28;20694;-76
2021/09/08 06:06:30;;;;;;;293.70;162.25;;;;;16.90;99429.00;;;;5047259;28;20060;-76
2021/09/08 06:08:59;;;;;;;9.80;7.68;;;;;17.00;99443.00;;;;5047615;28;20056;-76
2021/09/08 06:11:28;;;;;;;12.07;10.98;;;;;17.20;99428.00;;;;5047340;28;20144;-76
2021/09/08 06:13:58;;;;;;;7.28;4.78;;;;;17.20;99434.00;;;;5047171;28;20053;-78
2021/09/08 06:16:27;;;;;;;7.10;4.80;;;;;17.20;99442.00;;;;5046442;28;20045;-76
2021/09/08 06:18:56;;;;;;;1.20;1.10;;;;;17.30;99452.00;;;;5047891;28;20053;-75
2021/09/08 06:21:25;;;;;;;45.72;41.08;;;;;17.30;99494.00;;;;5047196;28;20047;-76
2021/09/08 06:23:54;;;;;;;7.93;5.57;;;;;17.40;99551.00;;;;5047337;28;20053;-76
2021/09/08 06:26:23;;;;;;;784.20;162.48;;;;;17.40;99594.00;;;;5047599;28;20041;-77
2021/09/08 06:28:53;;;;;;;9.00;5.65;;;;;17.50;99567.00;;;;5047029;28;20413;-75
2021/09/08 06:31:22;;;;;;;480.92;107.53;;;;;17.40;99592.00;;;;5047425;28;20044;-76
2021/09/08 06:33:51;;;;;;;438.48;57.17;;;;;17.30;99597.00;;;;5046899;28;20095;-74
2021/09/08 06:36:20;;;;;;;102.30;83.70;;;;;17.30;99590.00;;;;5046959;28;20057;-73
2021/09/08 06:38:49;;;;;;;155.07;39.90;;;;;17.30;99606.00;;;;5047473;28;20045;-73
2021/09/08 06:41:18;;;;;;;33.72;9.00;;;;;17.30;99600.00;;;;5046668;28;20057;-74
2021/09/08 06:43:49;;;;;;;17.70;15.88;;;;;17.20;99569.00;;;;5047213;28;20064;-75
2021/09/08 06:46:19;;;;;;;20.87;18.80;;;;;17.20;99599.00;;;;5046560;28;20052;-73
2021/09/08 06:48:47;;;;;;;174.00;34.30;;;;;17.30;99576.00;;;;5046982;28;20057;-75
2021/09/08 06:51:16;;;;;;;90.32;47.30;;;;;17.30;99540.00;;;;5046892;28;20053;-75
2021/09/08 06:53:45;;;;;;;51.85;46.67;;;;;17.30;99551.00;;;;5047022;28;20045;-76
2021/09/08 06:56:14;;;;;;;177.52;43.22;;;;;17.30;99560.00;;;;5046785;28;20051;-75
2021/09/08 06:58:43;;;;;;;23.13;20.92;;;;;17.30;99557.00;;;;5046748;28;20079;-75
2021/09/08 07:01:12;;;;;;;7.88;3.40;;;;;17.30;99560.00;;;;5046215;28;20136;-77
2021/09/08 07:03:41;;;;;;;322.58;99.43;;;;;17.30;99601.00;;;;5046886;28;20059;-76
2021/09/08 07:06:10;;;;;;;119.43;16.48;;;;;17.30;99623.00;;;;5046339;28;20051;-74
2021/09/08 07:08:39;;;;;;;615.22;149.75;;;;;17.30;99631.00;;;;5046430;28;20049;-75
2021/09/08 07:11:08;;;;;;;324.65;106.07;;;;;17.30;99641.00;;;;5046035;28;20439;-74
2021/09/08 07:13:37;;;;;;;229.32;92.63;;;;;17.30;99670.00;;;;5046838;28;20049;-75
2021/09/08 07:16:06;;;;;;;23.20;17.17;;;;;17.40;99685.00;;;;5046643;28;20126;-74
2021/09/08 07:18:35;;;;;;;99.75;50.30;;;;;17.40;99721.00;;;;5046780;28;20059;-74
2021/09/08 07:21:04;;;;;;;15.82;10.55;;;;;17.50;99718.00;;;;5046527;28;20049;-75
2021/09/08 07:23:33;;;;;;;60.78;17.90;;;;;17.50;99724.00;;;;5046046;28;20552;-75
2021/09/08 07:26:03;;;;;;;79.05;70.05;;;;;17.40;99709.00;;;;5046230;28;20575;-74
2021/09/08 07:28:32;;;;;;;12.25;5.03;;;;;17.30;99696.00;;;;5046234;28;20041;-75
2021/09/08 07:31:00;;;;;;;322.98;67.47;;;;;17.30;99665.00;;;;5046618;28;20515;-75
2021/09/08 07:33:29;;;;;;;310.13;89.75;;;;;17.20;99616.00;;;;5046491;28;20053;-76
2021/09/08 07:35:58;;;;;;;228.00;133.25;;;;;17.20;99619.00;;;;5049469;28;20049;-75
2021/09/08 07:38:27;;;;;;;146.45;82.28;;;;;17.10;99616.00;;;;5050264;28;20516;-74
2021/09/08 07:40:56;;;;;;;145.90;71.15;;;;;17.00;99645.00;;;;5049974;28;20228;-76
2021/09/08 07:43:25;;;;;;;298.85;91.45;;;;;17.00;99655.00;;;;5050225;28;20049;-76
2021/09/08 07:45:54;;;;;;;1202.10;563.40;;;;;16.90;99621.00;;;;5050288;28;20059;-77
2021/09/08 07:48:23;;;;;;;225.27;32.28;;;;;16.90;99664.00;;;;5049349;28;20519;-76
2021/09/08 07:50:55;;;;;;;15.90;6.90;;;;;16.90;99656.00;;;;5050983;28;20049;-75
2021/09/08 07:53:24;;;;;;;12.90;5.20;;;;;17.00;99675.00;;;;5049943;28;20053;-76
2021/09/08 07:55:53;;;;;;;343.67;180.10;;;;;17.00;99704.00;;;;5049862;28;20488;-76
2021/09/08 07:58:22;;;;;;;16.27;5.38;;;;;17.00;99730.00;;;;5048712;28;20053;-75
2021/09/08 08:00:51;;;;;;;161.52;104.90;;;;;17.10;99819.00;;;;5049558;28;20048;-75
2021/09/08 08:03:23;;;;;;;464.67;122.15;;;;;17.10;99847.00;;;;5048357;28;20056;-76
2021/09/08 08:05:52;;;;;;;93.30;30.77;;;;;17.00;99794.00;;;;5049788;28;20080;-76
2021/09/08 08:08:21;;;;;;;166.73;38.78;;;;;17.00;99763.00;;;;5049994;28;20049;-76
2021/09/08 08:10:50;;;;;;;188.85;72.68;;;;;17.00;99828.00;;;;5049807;28;20091;-77
2021/09/08 08:13:19;;;;;;;823.78;252.10;;;;;16.90;99806.00;;;;5049769;28;20415;-75
2021/09/08 08:15:48;;;;;;;497.58;202.52;;;;;16.90;99829.00;;;;5049263;28;20049;-75
2021/09/08 08:18:17;;;;;;;271.15;38.60;;;;;16.80;99808.00;;;;5048522;28;20053;-77
2021/09/08 08:20:46;;;;;;;221.50;97.80;;;;;16.70;99793.00;;;;5049304;28;20055;-77
2021/09/08 08:23:16;;;;;;;16.58;14.55;;;;;16.70;99783.00;;;;5049430;28;20048;-75
2021/09/08 08:25:45;;;;;;;56.42;6.13;;;;;16.60;99773.00;;;;5049577;28;20045;-78
2021/09/08 08:28:13;;;;;;;152.23;126.30;;;;;16.60;99770.00;;;;5048967;28;20526;-79
2021/09/08 08:30:42;;;;;;;53.17;31.25;;;;;16.60;99753.00;;;;5049526;28;20049;-74
2021/09/08 08:33:11;;;;;;;54.60;17.77;;;;;16.60;99726.00;;;;5048730;28;20064;-77
2021/09/08 08:35:40;;;;;;;1.08;1.08;;;;;16.60;99773.00;;;;5048638;28;20528;-73
2021/09/08 08:38:09;;;;;;;414.65;193.65;;;;;16.60;99792.00;;;;5048758;28;20055;-77
2021/09/08 08:40:38;;;;;;;701.88;344.05;;;;;16.60;99799.00;;;;5047543;28;20057;-77
2021/09/08 08:43:07;;;;;;;233.50;45.20;;;;;16.60;99760.00;;;;5049201;28;20053;-75
2021/09/08 08:45:37;;;;;;;233.50;197.05;;;;;16.60;99774.00;;;;5049231;28;20504;-75
2021/09/08 08:48:07;;;;;;;23.40;5.97;;;;;16.50;99778.00;;;;5049081;28;20053;-73
2021/09/08 08:50:36;;;;;;;554.15;190.70;;;;;16.50;99728.00;;;;5048983;28;20045;-76
2021/09/08 08:53:05;;;;;;;147.68;71.07;;;;;16.50;99796.00;;;;5048850;28;20060;-73
2021/09/08 08:55:34;;;;;;;31.15;8.27;;;;;16.50;99806.00;;;;5048332;28;20503;-73
2021/09/08 08:58:03;;;;;;;586.13;143.57;;;;;16.50;99797.00;;;;5048747;28;20496;-74
2021/09/08 09:00:33;;;;;;;201.10;174.48;;;;;16.60;99813.00;;;;5048691;28;20053;-77
2021/09/08 09:03:04;;;;;;;439.85;62.58;;;;;16.50;99827.00;;;;5048446;28;20132;-75
2021/09/08 09:05:38;;;;;;;62.70;15.25;;;;;16.50;99860.00;;;;5049378;28;20095;-78
2021/09/08 09:08:09;;;;;;;64.28;56.92;;;;;16.50;99868.00;;;;5048770;28;20124;-76
2021/09/08 09:10:38;;;;;;;;;;;;;16.50;99855.00;;;;5049013;28;20053;-74
2021/09/08 09:13:09;;;;;;;98.53;49.65;;;;;16.60;99871.00;;;;5048971;28;19924;-75
2021/09/08 09:15:37;;;;;;;84.82;10.73;;;;;16.50;99879.00;;;;5048064;28;20516;-77
2021/09/08 09:18:07;;;;;;;10.48;4.80;;;;;16.50;99867.00;;;;5052757;28;20045;-76
2021/09/08 09:20:39;;;;;;;16.85;5.78;;;;;16.50;99879.00;;;;5048316;28;20048;-74
2021/09/08 09:23:08;;;;;;;25.35;8.73;;;;;16.50;99835.00;;;;5048879;28;20057;-75
2021/09/08 09:25:39;;;;;;;34.17;15.32;;;;;16.60;99818.00;;;;5048234;28;20439;-78
2021/09/08 09:28:08;;;;;;;262.77;78.90;;;;;16.50;99824.00;;;;5047945;28;20049;-77
2021/09/08 09:30:39;;;;;;;77.75;60.63;;;;;16.50;99827.00;;;;5047286;28;20136;-74
2021/09/08 09:33:30;;;;;;;135.75;61.00;;;;;16.50;99836.00;;;;5048174;28;20057;-78
2021/09/08 09:36:15;;;;;;;32.05;10.50;;;;;16.50;99830.00;;;;5047739;28;20049;-77
2021/09/08 09:38:45;;;;;;;26.98;9.15;;;;;16.50;99833.00;;;;5048086;28;20096;-79
2021/09/08 09:41:17;;;;;;;640.55;145.32;;;;;16.50;99837.00;;;;5046267;28;20052;-78
2021/09/08 09:43:46;;;;;;;57.50;28.42;;;;;16.50;99843.00;;;;5047415;28;20053;-75
2021/09/08 09:46:15;;;;;;;202.85;40.58;;;;;16.50;99837.00;;;;5046905;28;20139;-76
2021/09/08 09:48:50;;;;;;;183.32;64.35;;;;;16.50;99844.00;;;;5046346;28;20063;-77
2021/09/08 09:51:19;;;;;;;481.50;161.05;;;;;16.50;99830.00;;;;5047362;28;20052;-76
2021/09/08 09:53:48;;;;;;;31.80;10.88;;;;;16.50;99797.00;;;;5046280;28;20057;-74
2021/09/08 09:56:17;;;;;;;34.75;12.00;;;;;16.50;99788.00;;;;5046263;28;20041;-74
2021/09/08 09:58:47;;;;;;;35.92;22.00;;;;;16.40;99747.00;;;;5046645;28;20056;-78
2021/09/08 10:01:18;;;;;;;60.22;43.90;;;;;16.50;99757.00;;;;5046649;28;20053;-80
2021/09/08 10:03:47;;;;;;;;;;;;;16.50;99803.00;;;;5046928;28;20061;-79
2021/09/08 10:06:18;;;;;;;26.63;13.52;;;;;16.50;99796.00;;;;5047637;28;20311;-78
2021/09/08 10:08:50;;;;;;;21.45;11.55;;;;;16.50;99783.00;;;;5047711;28;20049;-75
2021/09/08 10:11:23;;;;;;;514.95;94.70;;;;;16.50;99799.00;;;;5047056;28;20053;-75
2021/09/08 10:14:00;;;;;;;525.10;202.35;;;;;16.50;99821.00;;;;5047439;28;20128;-78
2021/09/08 10:16:28;;;;;;;29.00;12.35;;;;;16.50;99796.00;;;;5047200;28;20053;-78
2021/09/08 10:19:02;;;;;;;200.27;118.55;;;;;16.50;99774.00;;;;5046624;28;20045;-78
2021/09/08 10:21:31;;;;;;;15.60;7.60;;;;;16.50;99781.00;;;;5047311;28;20063;-79
2021/09/08 10:24:03;;;;;;;28.05;16.55;;;;;16.50;99742.00;;;;5045815;28;20501;-73
2021/09/08 10:26:35;;;;;;;8.75;5.22;;;;;16.50;99726.00;;;;5046679;28;20079;-75
2021/09/08 10:29:07;;;;;;;15.23;7.40;;;;;16.50;99738.00;;;;5046489;28;20049;-76
2021/09/08 10:31:51;;;;;;;113.53;101.47;;;;;16.50;99743.00;;;;5046891;28;20053;-77
2021/09/08 10:34:21;;;;;;;62.63;22.83;;;;;16.50;99731.00;;;;5047288;28;20056;-75
2021/09/08 10:36:51;;;;;;;112.63;21.33;;;;;16.50;99763.00;;;;5045990;28;20044;-78
2021/09/08 10:39:21;;;;;;;384.77;167.82;;;;;16.60;99753.00;;;;5047010;28;20052;-75
2021/09/08 10:41:54;;;;;;;22.42;18.38;;;;;16.60;99764.00;;;;5047362;28;20049;-74
2021/09/08 10:44:42;;;;;;;128.82;118.68;;;;;16.60;99762.00;;;;5047097;28;20053;-79
2021/09/08 10:47:11;;;;;;;482.38;110.90;;;;;16.60;99750.00;;;;5047523;28;20063;-78
2021/09/08 10:49:43;;;;;;;60.97;45.85;;;;;16.60;99759.00;;;;5046416;28;20463;-78
2021/09/08 10:52:36;;;;;;;397.95;340.58;;;;;16.70;99765.00;;;;5045381;28;20091;-76
2021/09/08 10:55:05;;;;;;;75.97;49.88;;;;;16.70;99775.00;;;;5046533;28;20140;-77
2021/09/08 10:57:41;;;;;;;15.85;12.77;;;;;16.70;99774.00;;;;5046476;28;20470;-77
2021/09/08 11:00:14;;;;;;;10.25;6.57;;;;;16.70;99761.00;;;;5046721;28;20128;-75
2021/09/08 11:02:44;;;;;;;20.83;9.15;;;;;16.70;99745.00;;;;5046206;28;20060;-75
2021/09/08 11:05:14;;;;;;;26.05;13.45;;;;;16.70;99747.00;;;;5046739;28;20504;-79
2021/09/08 11:07:45;;;;;;;432.77;197.18;;;;;16.70;99750.00;;;;5044363;28;20056;-75
2021/09/08 11:10:23;;;;;;;898.83;390.63;;;;;16.70;99722.00;;;;5045325;28;20053;-78
2021/09/08 11:12:55;;;;;;;23.90;13.43;;;;;16.70;99714.00;;;;5045352;28;20048;-76
2021/09/08 11:15:31;;;;;;;166.80;89.30;;;;;16.70;99769.00;;;;5046126;28;20053;-78
2021/09/08 11:18:01;;;;;;;1.67;1.25;;;;;16.70;99763.00;;;;5045786;28;20455;-79
2021/09/08 11:20:30;;;;;;;21.85;11.32;;;;;16.70;99751.00;;;;5046323;28;20060;-76
2021/09/08 11:23:14;;;;;;;27.05;19.13;;;;;16.70;99773.00;;;;5046574;28;20045;-77
2021/09/08 11:25:45;;;;;;;1999.90;999.90;;;;;16.70;99771.00;;;;5046396;28;20048;-76
2021/09/08 11:28:14;;;;;;;217.48;35.63;;;;;16.60;99733.00;;;;5045592;28;20041;-76
2021/09/08 11:30:45;;;;;;;20.80;18.95;;;;;16.60;99745.00;;;;5044220;28;20049;-74
2021/09/08 11:33:15;;;;;;;21.92;14.43;;;;;16.60;99739.00;;;;5044628;28;20055;-78
2021/09/08 11:35:50;;;;;;;399.08;105.55;;;;;16.60;99740.00;;;;5046073;28;20531;-79
2021/09/08 11:38:25;;;;;;;78.05;65.78;;;;;16.60;99778.00;;;;5047028;28;20428;-76
2021/09/08 11:40:56;;;;;;;199.65;53.08;;;;;16.60;99776.00;;;;5047202;28;20044;-76
2021/09/08 11:43:49;;;;;;;24.48;11.00;;;;;16.60;99820.00;;;;5046984;28;20051;-76
2021/09/08 11:46:30;;;;;;;620.72;212.52;;;;;16.60;99838.00;;;;5046444;28;20448;-75
2021/09/08 11:49:02;;;;;;;23.83;15.13;;;;;16.60;99844.00;;;;5057476;28;20053;-73
2021/09/08 11:51:37;;;;;;;14.32;9.68;;;;;16.60;99840.00;;;;5057241;28;20440;-74
2021/09/08 11:54:17;;;;;;;251.57;82.10;;;;;16.60;99884.00;;;;5054963;28;20164;-75
2021/09/08 11:56:57;;;;;;;32.97;17.98;;;;;16.60;99880.00;;;;5055468;28;20156;-76
2021/09/08 11:59:35;;;;;;;33.42;17.38;;;;;16.60;99868.00;;;;5049152;28;20604;-76
2021/09/08 12:02:04;;;;;;;105.28;72.05;;;;;16.60;99884.00;;;;5045779;28;20061;-75
2021/09/08 12:04:34;;;;;;;34.10;16.80;;;;;16.60;99875.00;;;;5045952;28;20168;-77
2021/09/08 12:07:06;;;;;;;35.45;17.40;;;;;16.60;99889.00;;;;5045659;28;20060;-75
2021/09/08 12:09:40;;;;;;;39.83;19.38;;;;;16.60;99894.00;;;;5046372;28;20056;-77
2021/09/08 12:12:22;;;;;;;389.10;129.85;;;;;16.70;99923.00;;;;5045741;28;20064;-74
2021/09/08 12:14:51;;;;;;;35.75;18.67;;;;;16.70;99913.00;;;;5046746;28;20049;-77
2021/09/08 12:17:27;;;;;;;37.78;17.48;;;;;16.70;99940.00;;;;5045454;28;20055;-79